createdAt,value
2022-08-27T00:02:36.036Z,14.40
2022-08-27T00:07:38.267Z,14.30
2022-08-27T00:12:41.362Z,14.20
2022-08-27T00:17:45.506Z,14.20
2022-08-27T00:22:47.845Z,14.10
2022-08-27T00:27:50.456Z,14.00
2022-08-27T00:32:54.057Z,14.00
2022-08-27T00:37:56.463Z,14.00
2022-08-27T00:42:59.204Z,14.00
2022-08-27T00:48:01.594Z,14.00
2022-08-27T00:53:11.851Z,14.00
2022-08-27T00:58:27.264Z,13.90
2022-08-27T01:03:29.587Z,13.90
2022-08-27T01:08:36.462Z,13.90
2022-08-27T01:13:59.523Z,13.90
2022-08-27T01:19:09.383Z,13.90
2022-08-27T01:24:40.767Z,13.80
2022-08-27T01:29:44.398Z,13.70
2022-08-27T01:34:47.742Z,13.60
2022-08-27T01:39:50.200Z,13.50
2022-08-27T01:44:55.930Z,13.50
2022-08-27T01:49:59.307Z,13.40
2022-08-27T01:55:01.857Z,13.40
2022-08-27T02:00:10.653Z,13.30
2022-08-27T02:05:15.039Z,13.20
2022-08-27T02:10:23.271Z,13.10
2022-08-27T02:15:26.091Z,13.10
2022-08-27T02:20:29.442Z,13.00
2022-08-27T02:25:32.006Z,13.00
2022-08-27T02:30:35.449Z,12.90
2022-08-27T02:35:44.013Z,12.90
2022-08-27T02:40:46.513Z,12.80
2022-08-27T02:45:49.068Z,12.70
2022-08-27T02:50:52.127Z,12.80
2022-08-27T02:55:54.771Z,12.70
2022-08-27T03:00:57.374Z,12.60
2022-08-27T03:06:00.175Z,12.50
2022-08-27T03:11:02.655Z,12.50
2022-08-27T03:16:06.411Z,12.40
2022-08-27T03:21:09.082Z,12.40
2022-08-27T03:26:12.187Z,12.30
2022-08-27T03:31:20.668Z,12.30
2022-08-27T03:36:23.614Z,12.30
2022-08-27T03:41:43.859Z,12.30
2022-08-27T03:46:49.614Z,12.20
2022-08-27T03:51:53.229Z,12.20
2022-08-27T03:56:55.552Z,12.10
2022-08-27T04:01:58.213Z,12.10
2022-08-27T04:07:00.664Z,12.10
2022-08-27T04:12:03.307Z,12.20
2022-08-27T04:17:06.554Z,12.20
2022-08-27T04:22:08.983Z,12.10
2022-08-27T04:27:11.609Z,12.00
2022-08-27T04:32:14.342Z,11.90
2022-08-27T04:37:16.826Z,11.90
2022-08-27T04:42:25.991Z,11.90
2022-08-27T04:47:28.739Z,11.90
2022-08-27T04:52:31.002Z,11.90
2022-08-27T04:57:34.952Z,11.90
2022-08-27T05:02:37.242Z,11.90
2022-08-27T05:07:39.532Z,11.90
2022-08-27T05:12:41.831Z,11.80
2022-08-27T05:17:44.304Z,11.80
2022-08-27T05:22:46.895Z,11.80
2022-08-27T05:27:49.430Z,11.70
2022-08-27T05:32:51.846Z,11.80
2022-08-27T05:37:55.249Z,11.80
2022-08-27T05:42:57.656Z,11.80
2022-08-27T05:48:00.146Z,11.90
2022-08-27T05:53:02.529Z,11.90
2022-08-27T05:58:05.515Z,12.00
2022-08-27T06:03:10.198Z,12.10
2022-08-27T06:08:12.696Z,12.20
2022-08-27T06:13:15.426Z,12.30
2022-08-27T06:18:17.760Z,12.30
2022-08-27T06:23:20.038Z,12.40
2022-08-27T06:28:31.439Z,12.60
2022-08-27T06:33:34.444Z,12.70
2022-08-27T06:38:37.197Z,12.90
2022-08-27T06:43:41.019Z,13.00
2022-08-27T06:48:47.182Z,13.00
2022-08-27T06:53:49.546Z,13.10
2022-08-27T06:58:56.708Z,13.30
2022-08-27T07:04:01.596Z,13.70
2022-08-27T07:09:05.329Z,14.40
2022-08-27T07:14:08.381Z,15.10
2022-08-27T07:19:10.701Z,15.80
2022-08-27T07:24:13.710Z,16.30
2022-08-27T07:29:16.362Z,16.60
2022-08-27T07:34:18.751Z,17.50
2022-08-27T07:39:20.991Z,19.10
2022-08-27T07:44:28.233Z,20.20
2022-08-27T07:49:37.749Z,20.40
2022-08-27T07:54:41.163Z,20.30
2022-08-27T07:59:46.993Z,19.00
2022-08-27T08:04:49.251Z,17.90
2022-08-27T08:09:51.438Z,17.40
2022-08-27T08:14:57.934Z,17.30
2022-08-27T08:20:19.796Z,17.70
2022-08-27T08:25:23.417Z,17.90
2022-08-27T08:30:26.359Z,18.10
2022-08-27T08:35:35.120Z,18.10
2022-08-27T08:40:48.960Z,18.00
2022-08-27T08:45:51.809Z,18.20
2022-08-27T08:51:13.010Z,18.30
2022-08-27T08:56:24.399Z,19.00
2022-08-27T09:01:27.658Z,19.30
2022-08-27T09:06:47.310Z,19.40
2022-08-27T09:11:59.611Z,19.70
2022-08-27T09:17:02.390Z,20.40
2022-08-27T09:22:51.513Z,21.00
2022-08-27T09:27:56.474Z,21.40
2022-08-27T09:33:01.520Z,21.50
2022-08-27T09:38:04.644Z,21.30
2022-08-27T09:43:23.517Z,21.00
2022-08-27T09:48:30.693Z,21.40
2022-08-27T09:53:52.932Z,21.60
2022-08-27T09:59:32.210Z,21.60
2022-08-27T10:04:50.751Z,22.00
2022-08-27T10:10:21.678Z,21.60
2022-08-27T10:15:27.571Z,20.90
2022-08-27T10:21:05.793Z,21.50
2022-08-27T10:26:29.694Z,22.60
2022-08-27T10:31:48.010Z,22.60
2022-08-27T10:37:10.362Z,22.30
2022-08-27T10:42:21.800Z,22.20
2022-08-27T10:47:36.283Z,21.90
2022-08-27T10:52:46.764Z,23.10
2022-08-27T10:58:21.435Z,23.50
2022-08-27T11:03:36.090Z,22.70
2022-08-27T11:08:53.972Z,22.90
2022-08-27T11:14:01.088Z,23.70
2022-08-27T11:19:14.021Z,24.80
2022-08-27T11:24:41.049Z,24.00
2022-08-27T11:30:01.520Z,22.80
2022-08-27T11:35:31.989Z,22.60
2022-08-27T11:40:54.123Z,22.70
2022-08-27T11:46:08.570Z,22.70
2022-08-27T11:51:30.102Z,22.30
2022-08-27T11:56:39.859Z,21.90
2022-08-27T12:01:42.122Z,22.60
2022-08-27T12:06:50.424Z,23.70
2022-08-27T12:12:01.330Z,23.70
2022-08-27T12:17:06.342Z,22.90
2022-08-27T12:22:17.759Z,22.30
2022-08-27T12:27:25.790Z,22.20
2022-08-27T12:32:36.106Z,22.30
2022-08-27T12:37:45.558Z,22.20
2022-08-27T12:42:48.543Z,22.20
2022-08-27T12:47:52.862Z,21.90
2022-08-27T12:53:36.317Z,22.40
2022-08-27T12:58:52.900Z,22.20
2022-08-27T13:03:57.177Z,21.80
2022-08-27T13:09:02.510Z,22.20
2022-08-27T13:14:11.333Z,22.60
2022-08-27T13:19:34.544Z,22.40
2022-08-27T13:24:50.874Z,22.70
2022-08-27T13:29:53.396Z,23.10
2022-08-27T13:34:56.223Z,23.30
2022-08-27T13:39:58.832Z,23.50
2022-08-27T13:45:03.747Z,23.50
2022-08-27T13:50:24.157Z,23.20
2022-08-27T13:55:27.866Z,23.30
2022-08-27T14:00:33.363Z,23.20
2022-08-27T14:05:37.035Z,23.00
2022-08-27T14:10:41.979Z,23.20
2022-08-27T14:15:46.517Z,23.20
2022-08-27T14:20:48.764Z,23.20
2022-08-27T14:25:53.100Z,23.00
2022-08-27T14:30:55.338Z,22.70
2022-08-27T14:35:57.736Z,22.70
2022-08-27T14:41:00.375Z,22.80
2022-08-27T14:46:03.649Z,22.80
2022-08-27T14:51:13.672Z,22.70
2022-08-27T14:56:16.153Z,22.70
2022-08-27T15:01:20.281Z,22.80
2022-08-27T15:06:23.890Z,22.80
2022-08-27T15:11:36.406Z,22.90
2022-08-27T15:16:43.815Z,22.90
2022-08-27T15:21:48.677Z,23.10
2022-08-27T15:26:54.345Z,22.80
2022-08-27T15:31:57.197Z,22.70
2022-08-27T15:37:00.020Z,22.80
2022-08-27T15:42:12.317Z,22.80
2022-08-27T15:47:19.424Z,22.90
2022-08-27T15:52:23.389Z,22.90
2022-08-27T15:57:25.833Z,22.70
2022-08-27T16:02:28.257Z,22.70
2022-08-27T16:07:31.468Z,22.60
2022-08-27T16:12:33.643Z,22.50
2022-08-27T16:17:36.533Z,22.50
2022-08-27T16:22:39.726Z,22.40
2022-08-27T16:27:41.902Z,22.30
2022-08-27T16:32:49.331Z,22.30
2022-08-27T16:37:52.617Z,22.30
2022-08-27T16:42:56.169Z,22.20
2022-08-27T16:48:17.438Z,22.10
2022-08-27T16:53:22.180Z,21.80
2022-08-27T16:58:27.284Z,21.80
2022-08-27T17:03:44.115Z,21.70
2022-08-27T17:08:56.332Z,21.70
2022-08-27T17:14:02.392Z,21.60
2022-08-27T17:19:06.083Z,21.40
2022-08-27T17:24:12.575Z,21.20
2022-08-27T17:29:15.166Z,21.10
2022-08-27T17:34:21.617Z,21.20
2022-08-27T17:39:24.154Z,21.10
2022-08-27T17:44:36.005Z,21.00
2022-08-27T17:49:38.819Z,20.80
2022-08-27T17:54:40.953Z,20.70
2022-08-27T17:59:43.196Z,21.10
2022-08-27T18:04:45.434Z,21.20
2022-08-27T18:09:48.439Z,20.90
2022-08-27T18:15:08.472Z,20.60
2022-08-27T18:20:13.667Z,20.20
2022-08-27T18:25:18.491Z,20.20
2022-08-27T18:30:21.345Z,20.10
2022-08-27T18:35:28.041Z,19.80
2022-08-27T18:40:35.983Z,19.60
2022-08-27T18:45:39.561Z,19.50
2022-08-27T18:50:47.506Z,19.30
2022-08-27T18:55:50.777Z,19.20
2022-08-27T19:00:58.199Z,19.10
2022-08-27T19:06:00.771Z,19.00
2022-08-27T19:11:03.250Z,18.90
2022-08-27T19:16:09.915Z,18.80
2022-08-27T19:21:15.975Z,18.70
2022-08-27T19:26:21.232Z,18.60
2022-08-27T19:31:23.491Z,18.60
2022-08-27T19:36:27.543Z,18.50
2022-08-27T19:41:30.872Z,18.40
2022-08-27T19:46:35.402Z,18.30
2022-08-27T19:51:37.632Z,18.30
2022-08-27T19:56:39.928Z,18.20
2022-08-27T20:01:42.197Z,18.10
2022-08-27T20:06:44.496Z,18.10
2022-08-27T20:11:47.615Z,18.00
2022-08-27T20:16:49.820Z,17.90
2022-08-27T20:21:53.107Z,17.80
2022-08-27T20:26:56.970Z,17.80
2022-08-27T20:31:59.564Z,17.80
2022-08-27T20:37:03.068Z,17.70
2022-08-27T20:42:05.969Z,17.70
2022-08-27T20:47:09.743Z,17.60
2022-08-27T20:52:13.093Z,17.50
2022-08-27T20:57:15.476Z,17.50
2022-08-27T21:02:25.968Z,17.40
2022-08-27T21:07:28.441Z,17.20
2022-08-27T21:12:31.455Z,17.10
2022-08-27T21:17:33.740Z,17.00
2022-08-27T21:22:35.986Z,16.90
2022-08-27T21:27:38.988Z,16.80
2022-08-27T21:32:41.764Z,16.80
2022-08-27T21:37:43.994Z,16.80
2022-08-27T21:42:47.378Z,16.70
2022-08-27T21:47:51.911Z,16.60
2022-08-27T21:52:55.491Z,16.50
2022-08-27T21:57:57.984Z,16.40
2022-08-27T22:03:00.357Z,16.40
2022-08-27T22:08:02.915Z,16.40
2022-08-27T22:13:06.068Z,16.30
2022-08-27T22:18:09.454Z,16.20
2022-08-27T22:23:13.147Z,16.20
2022-08-27T22:28:15.762Z,16.20
2022-08-27T22:33:19.007Z,16.20
2022-08-27T22:38:21.271Z,16.20
2022-08-27T22:43:23.694Z,16.20
2022-08-27T22:48:25.822Z,16.20
2022-08-27T22:53:28.211Z,16.20
2022-08-27T22:58:30.371Z,16.20
2022-08-27T23:03:33.023Z,16.10
2022-08-27T23:08:35.480Z,16.00
2022-08-27T23:13:39.471Z,16.10
2022-08-27T23:18:42.916Z,16.20
2022-08-27T23:23:45.308Z,16.20
2022-08-27T23:28:47.697Z,16.10
2022-08-27T23:33:54.306Z,16.10
2022-08-27T23:38:58.353Z,16.10
2022-08-27T23:44:00.488Z,16.20
2022-08-27T23:49:02.800Z,16.10
2022-08-27T23:54:05.230Z,16.00
2022-08-27T23:59:07.441Z,16.00
